Time;durP1;ratioP1;P1;durP2;ratioP2;P2;SDS_P1;SDS_P2;PMS_P1;PMS_P2;Temp;Humidity;BMP_temperature;BMP_pressure;BME280_temperature;BME280_humidity;BME280_pressure;Samples;Min_cycle;Max_cycle;Signal;HPM_P1;HPM_P2
2023/03/23 00:01:10;;;;;;;8.50;4.05;;;9.90;99.90;;;;;;4996621;28;20214;-82
2023/03/23 00:03:36;;;;;;;10.65;4.80;;;8.50;99.90;;;;;;4997225;28;20182;-84
2023/03/23 00:06:04;;;;;;;8.60;5.00;;;9.90;99.90;;;;;;4996115;28;20182;-84
2023/03/23 00:08:31;;;;;;;8.80;4.68;;;10.00;99.90;;;;;;4996198;28;20236;-83
2023/03/23 00:10:58;;;;;;;7.90;4.28;;;9.90;99.90;;;;;;4963956;28;20201;-83
2023/03/23 00:13:24;;;;;;;9.73;4.95;;;9.90;99.90;;;;;;4996296;28;20178;-83
2023/03/23 00:15:51;;;;;;;11.57;5.47;;;9.90;99.90;;;;;;4997328;28;20179;-84
2023/03/23 00:18:21;;;;;;;10.90;5.25;;;8.20;99.90;;;;;;4997082;28;20554;-83
2023/03/23 00:20:52;;;;;;;10.35;4.60;;;9.90;99.90;;;;;;4996096;28;20593;-83
2023/03/23 00:23:19;;;;;;;15.60;5.40;;;9.90;99.90;;;;;;4996036;28;20220;-83
2023/03/23 00:25:46;;;;;;;11.52;5.15;;;9.90;99.90;;;;;;4995806;28;20182;-84
2023/03/23 00:28:12;;;;;;;11.35;4.55;;;9.90;99.90;;;;;;4978997;28;20269;-83
2023/03/23 00:30:39;;;;;;;12.25;4.85;;;9.80;99.90;;;;;;4995438;28;20186;-84
2023/03/23 00:33:05;;;;;;;14.52;5.28;;;9.80;99.90;;;;;;4995198;28;20546;-83
2023/03/23 00:35:30;;;;;;;11.60;5.68;;;9.80;99.90;;;;;;4995171;28;20186;-83
2023/03/23 00:37:58;;;;;;;10.35;5.20;;;9.80;99.90;;;;;;4994821;28;20186;-84
2023/03/23 00:40:24;;;;;;;11.07;5.55;;;9.70;99.90;;;;;;4996200;28;20178;-83
2023/03/23 00:42:50;;;;;;;13.85;5.68;;;9.70;99.90;;;;;;4978507;28;20583;-84
2023/03/23 00:45:16;;;;;;;10.35;5.53;;;9.70;99.90;;;;;;4996170;28;20186;-84
2023/03/23 00:47:46;;;;;;;10.02;4.90;;;9.70;99.90;;;;;;4996165;28;20178;-83
2023/03/23 00:50:13;;;;;;;9.55;4.47;;;9.70;99.90;;;;;;4979372;28;20540;-83
2023/03/23 00:52:40;;;;;;;11.23;5.55;;;9.70;99.90;;;;;;4995795;28;20242;-83
2023/03/23 00:55:07;;;;;;;8.80;4.55;;;9.60;99.90;;;;;;4995922;28;20186;-83
2023/03/23 00:57:32;;;;;;;11.18;5.28;;;9.60;99.90;;;;;;4995931;28;20178;-83
2023/03/23 00:59:58;;;;;;;10.37;5.00;;;9.60;99.90;;;;;;4995390;28;20248;-83
2023/03/23 01:02:26;;;;;;;9.52;5.35;;;9.60;99.90;;;;;;4995410;28;20680;-83
2023/03/23 01:04:52;;;;;;;11.00;4.83;;;9.60;99.90;;;;;;4994315;28;20526;-83
2023/03/23 01:07:20;;;;;;;14.52;5.78;;;9.60;99.90;;;;;;4995371;28;20232;-83
2023/03/23 01:09:46;;;;;;;9.90;5.97;;;9.50;99.90;;;;;;4978368;28;20190;-83
2023/03/23 01:12:12;;;;;;;10.65;4.68;;;9.60;99.90;;;;;;4995804;28;20190;-83
2023/03/23 01:14:38;;;;;;;10.77;5.63;;;9.50;99.90;;;;;;4994347;28;20232;-83
2023/03/23 01:17:04;;;;;;;13.88;5.65;;;9.50;99.90;;;;;;4995444;28;20647;-82
2023/03/23 01:19:29;;;;;;;14.10;5.43;;;9.40;99.90;;;;;;4995687;28;20188;-82
2023/03/23 01:21:55;;;;;;;13.97;5.60;;;9.40;99.90;;;;;;4995178;28;20343;-82
2023/03/23 01:24:21;;;;;;;14.20;6.00;;;9.40;99.90;;;;;;4994162;28;20192;-82
2023/03/23 01:26:47;;;;;;;11.57;4.78;;;9.40;99.90;;;;;;4995154;28;20261;-82
2023/03/23 01:29:13;;;;;;;10.55;5.50;;;9.40;99.90;;;;;;4994364;28;20209;-81
2023/03/23 01:31:39;;;;;;;7.88;4.60;;;9.40;99.90;;;;;;4977805;28;20276;-81
2023/03/23 01:34:05;;;;;;;9.65;4.70;;;9.30;99.90;;;;;;4994125;28;20692;-82
2023/03/23 01:36:32;;;;;;;11.95;5.43;;;9.30;99.90;;;;;;4995175;28;20174;-82
2023/03/23 01:39:00;;;;;;;10.93;5.63;;;9.40;99.90;;;;;;4994983;28;20193;-82
2023/03/23 01:41:26;;;;;;;9.93;5.13;;;9.40;99.90;;;;;;4993520;28;20554;-82
2023/03/23 01:44:05;;;;;;;13.48;4.75;;;9.40;99.90;;;;;;4977437;28;20525;-82
2023/03/23 01:46:32;;;;;;;7.27;3.93;;;9.40;99.90;;;;;;4994939;28;20204;-82
2023/03/23 01:49:07;;;;;;;8.35;4.40;;;9.50;99.90;;;;;;4993644;28;20181;-82
2023/03/23 01:51:36;;;;;;;12.23;4.88;;;9.50;99.90;;;;;;4993855;28;20173;-82
2023/03/23 01:54:06;;;;;;;9.77;5.03;;;9.50;99.90;;;;;;4993282;28;20189;-83
2023/03/23 01:56:45;;;;;;;8.93;4.85;;;9.50;99.90;;;;;;4994711;28;20178;-82
2023/03/23 01:59:12;;;;;;;7.40;4.47;;;9.50;99.90;;;;;;4993404;28;20173;-83
2023/03/23 02:01:44;;;;;;;10.10;4.47;;;9.50;99.90;;;;;;4993254;28;20209;-83
2023/03/23 02:04:14;;;;;;;14.82;5.32;;;9.60;99.90;;;;;;4994556;28;20254;-82
2023/03/23 02:06:41;;;;;;;7.55;3.97;;;9.60;99.90;;;;;;4995064;28;20185;-82
2023/03/23 02:09:07;;;;;;;11.95;4.85;;;9.60;99.90;;;;;;4994049;28;20185;-83
2023/03/23 02:11:33;;;;;;;11.15;4.63;;;9.60;99.90;;;;;;4994341;28;20643;-83
2023/03/23 02:13:59;;;;;;;10.52;4.72;;;9.60;99.90;;;;;;4993137;28;20192;-83
2023/03/23 02:16:55;;;;;;;13.13;5.25;;;9.60;99.90;;;;;;4994763;28;20180;-82
2023/03/23 02:20:06;;;;;;;14.65;5.40;;;9.60;99.90;;;;;;4997997;28;20193;-82
2023/03/23 02:22:43;;;;;;;8.95;5.20;;;9.70;99.90;;;;;;4997077;28;20261;-83
2023/03/23 02:25:31;;;;;;;11.43;5.97;;;9.70;99.90;;;;;;4993616;28;20268;-83
2023/03/23 02:28:19;;;;;;;11.02;4.72;;;9.70;99.90;;;;;;4994324;28;20178;-84
2023/03/23 02:31:11;;;;;;;15.80;6.07;;;9.60;99.90;;;;;;4994240;28;20498;-83
2023/03/23 02:33:52;;;;;;;12.82;5.40;;;9.70;99.90;;;;;;4964444;28;20189;-83
2023/03/23 02:36:29;;;;;;;9.90;5.07;;;9.60;99.90;;;;;;4993191;28;20188;-83
2023/03/23 02:38:55;;;;;;;15.13;5.85;;;9.60;99.90;;;;;;4992801;28;20666;-83
2023/03/23 02:41:25;;;;;;;10.15;4.30;;;9.60;99.90;;;;;;4992963;28;20209;-83
2023/03/23 02:43:52;;;;;;;8.68;4.78;;;9.50;99.90;;;;;;4994171;28;20185;-83
2023/03/23 02:46:20;;;;;;;10.10;4.63;;;9.50;99.90;;;;;;4992700;28;20647;-83
2023/03/23 02:48:48;;;;;;;15.40;4.38;;;9.50;99.90;;;;;;4992737;28;20178;-82
2023/03/23 02:51:15;;;;;;;8.53;5.00;;;9.50;99.90;;;;;;4993926;28;20235;-83
2023/03/23 02:53:44;;;;;;;13.50;4.93;;;9.50;99.90;;;;;;4994861;28;20261;-82
2023/03/23 02:56:11;;;;;;;7.57;4.30;;;9.40;99.90;;;;;;4996665;28;20182;-82
2023/03/23 02:58:37;;;;;;;11.55;4.70;;;9.40;99.90;;;;;;4996632;28;20182;-82
2023/03/23 03:01:38;;;;;;;10.77;5.13;;;9.40;99.90;;;;;;4996511;28;20202;-82
2023/03/23 03:04:12;;;;;;;7.87;4.53;;;9.40;99.90;;;;;;4996365;28;20177;-83
2023/03/23 03:07:02;;;;;;;10.23;4.87;;;9.40;99.90;;;;;;4996663;28;20200;-83
2023/03/23 03:09:30;;;;;;;9.43;4.87;;;9.30;99.90;;;;;;4997885;28;20157;-82
2023/03/23 03:12:02;;;;;;;10.60;5.03;;;9.30;99.90;;;;;;4996425;28;20196;-83
2023/03/23 03:14:33;;;;;;;13.23;4.90;;;9.30;99.90;;;;;;4997783;28;20166;-83
2023/03/23 03:17:24;;;;;;;12.35;6.47;;;9.20;99.90;;;;;;5012725;28;20174;-83
2023/03/23 03:19:54;;;;;;;10.37;5.33;;;9.20;99.90;;;;;;4997757;28;20637;-82
2023/03/23 03:22:21;;;;;;;10.30;6.13;;;9.20;99.90;;;;;;4997283;28;20238;-83
2023/03/23 03:24:48;;;;;;;8.20;4.83;;;9.20;99.90;;;;;;4997450;28;20178;-83
2023/03/23 03:27:17;;;;;;;7.63;4.13;;;9.20;99.90;;;;;;4997416;28;20714;-83
2023/03/23 03:29:50;;;;;;;10.17;4.90;;;9.20;99.90;;;;;;4997544;28;20178;-82
2023/03/23 03:32:21;;;;;;;10.50;4.70;;;9.20;99.90;;;;;;4996252;28;20186;-83
2023/03/23 03:34:47;;;;;;;9.73;4.60;;;9.10;99.90;;;;;;4997602;28;20220;-82
2023/03/23 03:37:14;;;;;;;9.73;4.23;;;9.10;99.90;;;;;;4980013;28;20178;-82
2023/03/23 03:39:40;;;;;;;13.13;4.83;;;9.10;99.90;;;;;;4997328;28;20643;-82
2023/03/23 03:42:06;;;;;;;8.93;3.43;;;9.20;99.90;;;;;;4996111;28;20248;-83
2023/03/23 03:44:33;;;;;;;7.70;4.30;;;9.10;99.90;;;;;;4997628;28;20275;-83
2023/03/23 03:46:59;;;;;;;11.60;5.10;;;9.10;99.90;;;;;;4997384;28;20182;-83
2023/03/23 03:49:25;;;;;;;10.83;4.97;;;9.10;99.90;;;;;;4997057;28;20205;-83
2023/03/23 03:51:51;;;;;;;12.23;5.47;;;9.10;99.90;;;;;;4995955;28;20189;-83
2023/03/23 03:54:17;;;;;;;9.77;5.30;;;9.10;99.90;;;;;;4997000;28;20182;-83
2023/03/23 03:56:42;;;;;;;13.93;4.77;;;9.10;99.90;;;;;;4979474;28;20193;-83
2023/03/23 03:59:09;;;;;;;9.77;4.93;;;9.10;99.90;;;;;;4979488;28;20248;-83
2023/03/23 04:01:37;;;;;;;14.47;4.17;;;9.10;99.90;;;;;;4979415;28;20694;-83
2023/03/23 04:04:05;;;;;;;7.13;4.23;;;9.10;99.90;;;;;;4995614;28;20205;-82
2023/03/23 04:06:32;;;;;;;5.90;4.20;;;9.10;99.90;;;;;;4962629;28;20186;-82
2023/03/23 04:09:01;;;;;;;7.75;4.07;;;9.10;99.90;;;;;;4995582;28;20204;-82
2023/03/23 04:11:26;;;;;;;9.47;5.40;;;9.20;99.90;;;;;;4996594;28;20207;-82
2023/03/23 04:13:52;;;;;;;9.50;4.60;;;9.20;99.90;;;;;;4995485;28;20639;-82
2023/03/23 04:16:18;;;;;;;10.73;4.32;;;9.30;99.90;;;;;;4995835;28;20262;-82
2023/03/23 04:18:44;;;;;;;5.80;4.10;;;9.20;99.90;;;;;;4995047;28;20189;-82
2023/03/23 04:21:10;;;;;;;10.47;5.17;;;9.30;99.90;;;;;;4994691;28;20249;-82
2023/03/23 04:23:37;;;;;;;9.43;4.60;;;9.30;99.90;;;;;;4995384;28;20706;-82
2023/03/23 04:26:03;;;;;;;6.97;3.93;;;9.20;99.90;;;;;;4978967;28;20547;-82
2023/03/23 04:28:33;;;;;;;7.32;3.40;;;9.20;99.90;;;;;;4994722;28;20189;-82
2023/03/23 04:31:00;;;;;;;10.23;4.82;;;9.20;99.90;;;;;;4979387;28;20624;-82
2023/03/23 04:33:27;;;;;;;11.82;6.18;;;9.20;99.90;;;;;;5011291;28;20186;-82
2023/03/23 04:35:54;;;;;;;10.77;5.60;;;9.20;99.90;;;;;;4994937;28;20260;-82
2023/03/23 04:38:23;;;;;;;11.73;4.88;;;9.20;99.90;;;;;;4994910;28;20174;-83
2023/03/23 04:40:52;;;;;;;12.33;5.37;;;9.20;99.90;;;;;;4994928;28;20181;-83
2023/03/23 04:43:24;;;;;;;9.27;4.93;;;9.20;99.90;;;;;;4996059;28;20272;-83
2023/03/23 04:45:58;;;;;;;7.57;4.00;;;9.20;99.90;;;;;;4994851;28;20182;-83
2023/03/23 04:48:29;;;;;;;7.03;3.67;;;9.20;99.90;;;;;;4994766;28;20236;-83
2023/03/23 04:50:56;;;;;;;7.60;3.90;;;9.30;99.90;;;;;;4994753;28;20209;-83
2023/03/23 04:53:21;;;;;;;8.43;4.00;;;9.30;99.90;;;;;;4994572;28;20177;-84
2023/03/23 04:55:48;;;;;;;6.57;3.97;;;9.20;99.90;;;;;;4994602;28;20204;-83
2023/03/23 04:58:15;;;;;;;25.03;5.33;;;9.30;99.90;;;;;;4995764;28;20228;-83
2023/03/23 05:00:49;;;;;;;8.53;3.80;;;9.30;99.90;;;;;;4994191;28;20185;-84
2023/03/23 05:03:19;;;;;;;7.20;3.50;;;9.30;99.90;;;;;;4994479;28;20182;-84
2023/03/23 05:05:51;;;;;;;7.43;3.97;;;9.30;99.90;;;;;;4994529;28;20185;-84
2023/03/23 05:08:19;;;;;;;3.80;3.27;;;9.20;99.90;;;;;;4994439;28;20534;-84
2023/03/23 05:10:56;;;;;;;7.03;4.10;;;9.20;99.90;;;;;;4995320;28;20256;-83
2023/03/23 05:13:22;;;;;;;5.93;3.47;;;9.30;99.90;;;;;;4994214;28;20178;-84
2023/03/23 05:15:48;;;;;;;8.82;4.95;;;9.20;99.90;;;;;;4995573;28;20330;-84
2023/03/23 05:18:14;;;;;;;8.77;4.33;;;9.30;99.90;;;;;;4993652;28;20174;-84
2023/03/23 05:20:41;;;;;;;6.90;3.95;;;9.20;99.90;;;;;;4995413;28;20236;-83
2023/03/23 05:23:08;;;;;;;8.17;5.30;;;9.20;99.90;;;;;;4994144;28;20642;-84
2023/03/23 05:25:36;;;;;;;11.63;6.05;;;9.20;99.90;;;;;;4993732;28;20189;-84
2023/03/23 05:28:03;;;;;;;6.10;4.05;;;9.20;99.90;;;;;;4993244;28;20174;-84
2023/03/23 05:30:29;;;;;;;6.93;3.93;;;9.20;99.90;;;;;;4992941;28;20427;-84
2023/03/23 05:32:55;;;;;;;6.77;3.63;;;9.20;99.90;;;;;;4993264;28;20190;-84
2023/03/23 05:35:21;;;;;;;10.32;6.50;;;;;;;;;;4997591;28;20180;-83
2023/03/23 05:37:47;;;;;;;9.75;6.47;;;9.30;99.90;;;;;;4984936;28;20181;-84
2023/03/23 05:40:13;;;;;;;7.38;3.95;;;9.40;99.90;;;;;;5012726;28;20189;-83
2023/03/23 05:42:40;;;;;;;6.03;2.90;;;9.40;99.90;;;;;;5003163;28;20221;-84
2023/03/23 05:45:13;;;;;;;9.57;4.90;;;9.50;99.90;;;;;;4991996;28;20232;-84
2023/03/23 05:47:39;;;;;;;5.93;3.53;;;9.60;99.90;;;;;;4993374;28;20202;-84
2023/03/23 05:50:07;;;;;;;5.68;2.85;;;9.70;99.90;;;;;;4991825;28;20205;-84
2023/03/23 05:52:35;;;;;;;7.50;3.72;;;9.90;99.90;;;;;;4992115;28;20196;-83
2023/03/23 05:55:03;;;;;;;6.88;3.28;;;9.80;99.90;;;;;;4991686;28;20236;-84
2023/03/23 05:57:29;;;;;;;6.00;3.65;;;9.90;99.90;;;;;;4991925;28;20224;-83
2023/03/23 05:59:55;;;;;;;5.15;2.83;;;10.00;99.90;;;;;;4992395;28;20204;-83
2023/03/23 06:02:23;;;;;;;5.00;3.13;;;10.20;99.90;;;;;;4993426;28;20241;-83
2023/03/23 06:04:49;;;;;;;6.55;3.28;;;10.30;99.90;;;;;;4993478;28;20260;-84
2023/03/23 06:07:15;;;;;;;8.82;4.07;;;10.40;99.90;;;;;;4993594;28;20270;-83
2023/03/23 06:09:41;;;;;;;7.40;3.20;;;10.50;99.90;;;;;;4975128;28;20619;-83
2023/03/23 06:12:09;;;;;;;5.95;3.40;;;10.70;99.90;;;;;;4975458;28;20405;-83
2023/03/23 06:14:35;;;;;;;10.60;4.45;;;10.80;99.90;;;;;;4994199;28;20174;-83
2023/03/23 06:17:01;;;;;;;7.05;4.70;;;11.00;99.90;;;;;;4992979;28;20190;-84
2023/03/23 06:19:27;;;;;;;6.07;3.97;;;11.10;99.90;;;;;;4993090;28;20178;-84
2023/03/23 06:21:55;;;;;;;6.55;3.63;;;11.10;99.90;;;;;;4992619;28;20738;-83
2023/03/23 06:24:21;;;;;;;7.07;4.00;;;11.00;99.90;;;;;;4993769;28;20228;-84
2023/03/23 06:26:47;;;;;;;7.30;4.10;;;11.00;99.90;;;;;;4993728;28;20177;-82
2023/03/23 06:29:13;;;;;;;5.35;3.25;;;11.00;99.90;;;;;;4991650;28;20671;-83
2023/03/23 06:31:49;;;;;;;7.82;3.42;;;11.00;99.90;;;;;;4991661;28;20212;-83
2023/03/23 06:34:15;;;;;;;7.75;3.80;;;11.00;99.90;;;;;;4993301;28;20649;-83
2023/03/23 06:36:40;;;;;;;4.60;2.97;;;11.10;99.90;;;;;;4992243;28;20261;-83
2023/03/23 06:39:06;;;;;;;7.65;4.30;;;11.20;99.90;;;;;;4959988;28;20783;-82
2023/03/23 06:41:32;;;;;;;7.15;3.97;;;11.20;99.90;;;;;;4991718;28;20209;-81
2023/03/23 06:43:59;;;;;;;8.77;4.20;;;11.20;99.90;;;;;;4975362;28;20193;-81
2023/03/23 06:46:25;;;;;;;10.32;4.47;;;11.30;99.90;;;;;;4992685;28;20178;-81
2023/03/23 06:48:51;;;;;;;11.48;5.35;;;11.40;99.90;;;;;;4992419;28;20615;-81
2023/03/23 06:51:17;;;;;;;9.52;4.35;;;11.40;99.90;;;;;;4991641;28;20237;-82
2023/03/23 06:53:43;;;;;;;8.00;3.47;;;11.40;99.90;;;;;;4990301;28;20178;-82
2023/03/23 06:56:10;;;;;;;10.93;3.58;;;11.40;99.90;;;;;;4974421;28;20585;-83
2023/03/23 06:58:36;;;;;;;8.25;3.60;;;11.40;99.90;;;;;;4990279;28;20598;-83
2023/03/23 07:01:01;;;;;;;6.88;3.85;;;11.40;99.90;;;;;;4974285;28;20595;-83
2023/03/23 07:03:27;;;;;;;8.35;3.75;;;11.40;99.90;;;;;;4990477;28;20272;-83
2023/03/23 07:05:54;;;;;;;6.13;3.70;;;11.50;99.90;;;;;;4992759;28;20261;-84
2023/03/23 07:08:20;;;;;;;6.63;3.17;;;11.50;99.90;;;;;;4992598;28;20174;-84
2023/03/23 07:10:47;;;;;;;5.85;3.75;;;11.60;99.90;;;;;;4976352;28;20178;-84
2023/03/23 07:13:12;;;;;;;8.35;4.03;;;11.60;99.90;;;;;;4992647;28;20182;-84
2023/03/23 07:15:39;;;;;;;6.72;3.25;;;11.70;99.90;;;;;;4976295;28;20186;-84
2023/03/23 07:18:05;;;;;;;7.43;4.05;;;11.80;99.90;;;;;;4994271;28;20173;-84
2023/03/23 07:20:31;;;;;;;5.90;3.05;;;11.90;99.90;;;;;;4976313;28;20186;-84
2023/03/23 07:22:57;;;;;;;5.10;2.90;;;12.00;99.90;;;;;;4991992;28;20237;-83
2023/03/23 07:25:23;;;;;;;7.03;3.55;;;12.00;99.90;;;;;;4992436;28;20225;-83
2023/03/23 07:27:49;;;;;;;6.20;3.50;;;12.00;99.90;;;;;;4991989;28;20186;-84
2023/03/23 07:30:14;;;;;;;7.32;3.10;;;12.00;99.90;;;;;;4993608;28;20188;-83
2023/03/23 07:32:41;;;;;;;5.95;3.38;;;12.10;99.90;;;;;;4992277;28;20208;-83
2023/03/23 07:35:07;;;;;;;7.55;4.28;;;12.20;99.90;;;;;;4992461;28;20620;-84
2023/03/23 07:37:34;;;;;;;10.80;3.72;;;12.30;99.90;;;;;;4992231;28;20181;-84
2023/03/23 07:39:59;;;;;;;6.57;3.63;;;12.40;99.90;;;;;;4993590;28;20580;-84
2023/03/23 07:42:25;;;;;;;11.63;4.47;;;12.40;99.90;;;;;;4997230;28;20217;-84
2023/03/23 07:44:50;;;;;;;7.75;3.55;;;12.60;99.90;;;;;;4979743;28;20182;-84
2023/03/23 07:47:17;;;;;;;7.13;3.65;;;12.60;99.90;;;;;;4996063;28;20169;-84
2023/03/23 07:49:43;;;;;;;5.53;3.78;;;12.70;99.90;;;;;;4995964;28;20258;-84
2023/03/23 07:52:10;;;;;;;5.85;3.90;;;12.80;99.90;;;;;;4996093;28;20229;-84
2023/03/23 07:54:36;;;;;;;8.23;3.38;;;12.80;99.90;;;;;;4963888;28;20337;-84
2023/03/23 07:57:02;;;;;;;8.65;4.20;;;12.90;99.90;;;;;;4995775;28;20217;-84
2023/03/23 07:59:28;;;;;;;7.68;4.07;;;13.00;99.90;;;;;;4995714;28;20193;-84
2023/03/23 08:01:54;;;;;;;11.93;4.35;;;13.00;99.90;;;;;;4995369;28;20209;-85
2023/03/23 08:04:19;;;;;;;7.15;3.53;;;13.10;99.90;;;;;;4995700;28;20190;-84
2023/03/23 08:06:45;;;;;;;8.07;3.67;;;13.10;99.90;;;;;;4996654;28;20662;-84
2023/03/23 08:09:11;;;;;;;6.80;3.85;;;13.10;99.90;;;;;;4995404;28;20209;-84
2023/03/23 08:11:38;;;;;;;5.28;3.38;;;13.10;99.90;;;;;;4963240;28;20192;-86
2023/03/23 08:14:04;;;;;;;6.03;3.53;;;13.20;99.90;;;;;;4996503;28;20643;-85
2023/03/23 08:16:29;;;;;;;6.65;4.72;;;13.30;99.90;;;;;;4979337;28;20174;-85
2023/03/23 08:18:56;;;;;;;8.50;4.13;;;13.40;99.90;;;;;;4996707;28;20209;-84
2023/03/23 08:21:22;;;;;;;9.80;4.18;;;13.50;99.90;;;;;;4994981;28;20253;-84
2023/03/23 08:23:48;;;;;;;13.57;4.55;;;13.50;99.90;;;;;;4994924;28;20663;-85
2023/03/23 08:26:15;;;;;;;5.88;3.63;;;13.50;99.90;;;;;;4994924;28;20182;-85
2023/03/23 08:28:42;;;;;;;5.35;3.65;;;13.50;99.90;;;;;;4994992;28;20185;-85
2023/03/23 08:31:10;;;;;;;9.55;4.20;;;13.50;99.90;;;;;;4996218;28;20244;-84
2023/03/23 08:33:36;;;;;;;6.80;3.47;;;13.60;99.90;;;;;;4995004;28;20276;-84
2023/03/23 08:36:02;;;;;;;12.30;4.82;;;13.50;99.90;;;;;;4995749;28;20178;-84
2023/03/23 08:38:30;;;;;;;5.35;3.10;;;13.50;99.90;;;;;;4996279;28;20699;-84
2023/03/23 08:41:00;;;;;;;6.22;3.80;;;13.60;99.90;;;;;;4995919;28;20627;-86
2023/03/23 08:43:27;;;;;;;7.28;3.60;;;13.70;99.90;;;;;;4994979;28;20186;-84
2023/03/23 08:45:53;;;;;;;6.18;3.92;;;13.60;99.90;;;;;;4994544;28;20174;-85
2023/03/23 08:48:19;;;;;;;6.53;2.97;;;13.60;99.90;;;;;;4995823;28;20636;-84
2023/03/23 08:50:45;;;;;;;11.93;4.55;;;13.60;99.90;;;;;;4978088;28;20185;-85
2023/03/23 08:53:11;;;;;;;9.85;4.53;;;13.70;99.90;;;;;;4977835;28;20189;-85
2023/03/23 08:55:38;;;;;;;5.93;3.45;;;13.70;99.90;;;;;;4994439;28;20568;-85
2023/03/23 08:58:04;;;;;;;7.18;3.47;;;13.70;99.90;;;;;;4994377;28;20277;-84
2023/03/23 09:00:30;;;;;;;7.45;4.22;;;13.70;99.90;;;;;;4995808;28;20661;-84
2023/03/23 09:02:56;;;;;;;11.35;4.45;;;13.70;99.90;;;;;;4995478;28;20221;-84
2023/03/23 09:05:25;;;;;;;5.40;3.85;;;13.70;99.90;;;;;;4994096;28;20225;-83
2023/03/23 09:07:52;;;;;;;5.78;3.28;;;13.80;99.90;;;;;;4994519;28;20654;-86
2023/03/23 09:10:19;;;;;;;5.38;3.53;;;13.80;99.90;;;;;;4993968;28;20205;-83
2023/03/23 09:12:46;;;;;;;7.85;3.97;;;13.80;99.90;;;;;;4995033;28;20276;-85
2023/03/23 09:15:15;;;;;;;7.07;4.00;;;13.90;99.90;;;;;;5010373;28;20220;-84
2023/03/23 09:17:44;;;;;;;10.05;4.60;;;13.90;99.90;;;;;;4992875;28;20615;-84
2023/03/23 09:20:12;;;;;;;11.00;3.78;;;13.90;99.90;;;;;;4992739;28;20623;-84
2023/03/23 09:22:40;;;;;;;11.65;4.28;;;14.00;99.90;;;;;;4992500;28;20676;-83
2023/03/23 09:25:10;;;;;;;6.22;2.95;;;14.10;99.90;;;;;;4992696;28;20253;-85
2023/03/23 09:27:40;;;;;;;6.30;3.72;;;14.10;99.90;;;;;;4992704;28;20186;-85
2023/03/23 09:30:10;;;;;;;5.57;3.33;;;14.20;99.90;;;;;;4976860;28;20205;-84
2023/03/23 09:32:36;;;;;;;11.32;3.08;;;14.30;99.90;;;;;;4994715;28;20531;-84
2023/03/23 09:35:03;;;;;;;7.40;3.95;;;14.20;99.90;;;;;;4993876;28;20182;-85
2023/03/23 09:37:29;;;;;;;6.57;3.80;;;14.30;99.90;;;;;;4994090;28;20182;-88
2023/03/23 09:39:55;;;;;;;7.57;4.03;;;14.40;99.90;;;;;;4993847;28;20240;-86
2023/03/23 09:42:42;;;;;;;4.25;3.05;;;14.40;99.90;;;;;;4993817;28;20848;-86
2023/03/23 09:45:16;;;;;;;3.10;2.75;;;14.50;99.90;;;;;;4993729;28;20189;-85
2023/03/23 09:48:05;;;;;;;9.93;5.35;;;14.50;99.90;;;;;;4994983;28;20162;-85
2023/03/23 09:50:33;;;;;;;6.63;3.75;;;14.60;99.90;;;;;;4995114;28;20173;-86
2023/03/23 09:53:15;;;;;;;6.70;4.03;;;12.90;99.90;;;;;;4994420;28;20173;-86
2023/03/23 09:55:42;;;;;;;7.90;4.20;;;14.80;99.90;;;;;;4994675;28;20196;-85
2023/03/23 09:58:23;;;;;;;7.15;3.55;;;14.80;99.90;;;;;;4992897;28;20193;-84
2023/03/23 10:01:19;;;;;;;8.25;3.72;;;14.90;99.90;;;;;;4994097;28;20166;-86
2023/03/23 10:03:46;;;;;;;9.15;3.75;;;15.00;99.90;;;;;;4987806;28;20214;-86
2023/03/23 10:06:17;;;;;;;5.78;3.45;;;15.00;99.90;;;;;;4993978;28;20651;-86
2023/03/23 10:08:51;;;;;;;9.25;3.75;;;15.10;99.90;;;;;;4993750;28;20170;-86
2023/03/23 10:11:39;;;;;;;14.50;4.55;;;15.20;99.90;;;;;;4997770;28;20177;-86
2023/03/23 10:14:26;;;;;;;8.10;3.88;;;15.30;99.90;;;;;;4993985;28;20276;-86
2023/03/23 10:17:00;;;;;;;9.13;3.55;;;15.40;99.90;;;;;;4993963;28;20170;-85
2023/03/23 10:19:47;;;;;;;4.78;3.28;;;15.50;99.90;;;;;;4992053;28;20178;-85
2023/03/23 10:22:20;;;;;;;6.15;3.97;;;15.50;99.90;;;;;;4991988;28;20588;-86
2023/03/23 10:25:03;;;;;;;6.32;3.63;;;15.50;99.90;;;;;;4993510;28;20228;-86
2023/03/23 10:27:43;;;;;;;5.45;3.10;;;15.60;99.90;;;;;;4992431;28;20627;-86
2023/03/23 10:30:43;;;;;;;4.82;3.13;;;15.70;99.90;;;;;;4992243;28;20260;-86
2023/03/23 10:33:17;;;;;;;6.05;3.30;;;15.80;99.90;;;;;;4950372;28;20228;-88
2023/03/23 10:36:03;;;;;;;6.03;3.60;;;15.80;99.90;;;;;;4992201;28;20184;-85
2023/03/23 10:38:53;;;;;;;9.75;3.80;;;15.90;99.90;;;;;;4993106;28;20173;-84
2023/03/23 10:41:20;;;;;;;5.68;3.53;;;15.90;99.80;;;;;;4991804;28;20217;-84
2023/03/23 10:43:52;;;;;;;7.20;3.85;;;15.80;99.90;;;;;;4991940;28;20236;-85
2023/03/23 10:46:39;;;;;;;4.82;3.22;;;15.80;99.90;;;;;;4993305;28;20257;-86
2023/03/23 10:49:11;;;;;;;6.10;3.15;;;15.80;99.20;;;;;;4991993;28;20177;-86
2023/03/23 10:51:44;;;;;;;8.32;3.15;;;15.90;99.90;;;;;;4992947;28;20631;-85
2023/03/23 10:54:10;;;;;;;5.75;3.13;;;15.90;99.90;;;;;;4992844;28;20241;-84
2023/03/23 10:56:41;;;;;;;5.05;2.80;;;15.90;99.50;;;;;;4992963;28;20586;-84
2023/03/23 10:59:21;;;;;;;8.85;4.18;;;15.90;99.50;;;;;;4991654;28;20420;-84
2023/03/23 11:01:52;;;;;;;7.40;3.47;;;15.90;99.40;;;;;;4986352;28;20209;-86
2023/03/23 11:04:19;;;;;;;9.52;4.07;;;15.90;99.30;;;;;;4993139;28;20177;-85
2023/03/23 11:06:48;;;;;;;9.93;3.70;;;16.00;99.90;;;;;;4991538;28;20182;-85
2023/03/23 11:09:20;;;;;;;6.53;3.33;;;16.00;99.50;;;;;;4991515;28;20541;-86
2023/03/23 11:11:55;;;;;;;6.60;3.88;;;16.10;99.30;;;;;;4991726;28;20550;-85
2023/03/23 11:14:28;;;;;;;7.43;3.42;;;16.10;99.10;;;;;;4992096;28;20626;-85
2023/03/23 11:17:21;;;;;;;7.93;3.95;;;16.00;99.50;;;;;;4995635;28;20188;-86
2023/03/23 11:19:49;;;;;;;7.55;3.00;;;16.00;99.40;;;;;;4996809;28;20181;-85
2023/03/23 11:22:22;;;;;;;6.40;3.67;;;16.10;98.40;;;;;;4963330;28;20239;-84
2023/03/23 11:24:53;;;;;;;7.30;3.75;;;16.10;98.10;;;;;;4996256;28;20268;-84
2023/03/23 11:27:20;;;;;;;5.45;3.63;;;16.00;97.90;;;;;;4997437;28;20181;-85
2023/03/23 11:29:53;;;;;;;6.45;4.43;;;16.00;98.50;;;;;;4997766;28;20174;-86
2023/03/23 11:32:22;;;;;;;6.28;3.90;;;16.10;98.10;;;;;;4996002;28;20282;-85
2023/03/23 11:34:53;;;;;;;8.18;3.65;;;16.10;98.50;;;;;;4997276;28;20187;-87
2023/03/23 11:37:42;;;;;;;7.28;3.83;;;16.20;97.90;;;;;;4997904;28;20185;-85
2023/03/23 11:40:12;;;;;;;5.38;3.53;;;16.20;97.60;;;;;;4997151;28;20167;-85
2023/03/23 11:42:44;;;;;;;7.47;3.45;;;16.20;97.50;;;;;;4998178;28;20232;-86
2023/03/23 11:45:33;;;;;;;6.35;3.55;;;16.20;97.40;;;;;;4998786;28;20232;-85
2023/03/23 11:48:08;;;;;;;10.57;5.43;;;16.30;97.30;;;;;;4996097;28;20181;-85
2023/03/23 11:50:55;;;;;;;7.15;3.55;;;16.30;97.70;;;;;;4996054;28;20177;-86
2023/03/23 11:53:34;;;;;;;5.30;3.15;;;16.40;96.80;;;;;;4996789;28;20170;-85
2023/03/23 11:56:21;;;;;;;7.85;3.92;;;16.40;96.30;;;;;;4995960;28;20201;-84
2023/03/23 11:58:47;;;;;;;7.85;3.83;;;16.30;96.40;;;;;;4997146;28;20170;-85
2023/03/23 12:01:19;;;;;;;4.95;3.15;;;16.30;96.90;;;;;;4979445;28;20174;-85
2023/03/23 12:04:08;;;;;;;7.22;3.67;;;16.40;96.10;;;;;;4996003;28;20182;-85
2023/03/23 12:06:52;;;;;;;6.22;3.20;;;16.40;97.30;;;;;;4996306;28;20174;-85
2023/03/23 12:09:18;;;;;;;5.78;3.47;;;16.40;96.80;;;;;;4995175;28;20185;-84
2023/03/23 12:12:05;;;;;;;6.13;3.88;;;16.40;95.30;;;;;;4995593;28;20186;-85
2023/03/23 12:15:03;;;;;;;5.15;3.17;;;16.50;94.80;;;;;;4996722;28;20166;-85
2023/03/23 12:18:01;;;;;;;4.72;3.33;;;16.60;94.50;;;;;;4994534;28;20277;-85
2023/03/23 12:20:29;;;;;;;4.35;2.85;;;16.60;94.20;;;;;;4996068;28;20190;-84
2023/03/23 12:23:02;;;;;;;4.30;2.90;;;16.80;94.10;;;;;;4995347;28;20237;-86
2023/03/23 12:25:30;;;;;;;6.15;3.05;;;17.00;93.30;;;;;;4994971;28;20174;-86
2023/03/23 12:28:02;;;;;;;4.43;2.88;;;17.20;92.70;;;;;;4994688;28;20181;-85
2023/03/23 12:30:33;;;;;;;5.78;2.38;;;17.40;91.90;;;;;;4996654;28;20255;-86
2023/03/23 12:33:10;;;;;;;3.67;2.70;;;17.70;91.40;;;;;;4995168;28;20194;-86
2023/03/23 12:36:05;;;;;;;4.50;2.95;;;17.80;90.20;;;;;;4994960;28;20189;-85
2023/03/23 12:38:49;;;;;;;7.38;2.90;;;18.00;89.40;;;;;;4994927;28;20182;-86
2023/03/23 12:41:26;;;;;;;5.95;2.65;;;18.30;87.10;;;;;;4994895;28;20182;-85
2023/03/23 12:44:03;;;;;;;3.95;2.90;;;18.30;85.50;;;;;;5011314;28;20232;-85
2023/03/23 12:46:35;;;;;;;7.40;2.67;;;18.40;85.40;;;;;;5000158;28;20189;-85
2023/03/23 12:49:18;;;;;;;3.80;2.55;;;18.40;86.00;;;;;;5001882;28;20234;-85
2023/03/23 12:52:18;;;;;;;5.03;2.30;;;18.50;84.40;;;;;;4999842;28;20188;-86
2023/03/23 12:55:02;;;;;;;3.42;2.22;;;18.50;79.50;;;;;;4997564;28;20178;-84
2023/03/23 12:57:43;;;;;;;2.88;1.90;;;18.50;79.10;;;;;;4995336;28;20213;-84
2023/03/23 13:00:23;;;;;;;3.38;2.20;;;18.60;77.80;;;;;;4994916;28;20181;-86
2023/03/23 13:03:09;;;;;;;7.05;2.88;;;18.70;79.10;;;;;;4994649;28;20221;-85
2023/03/23 13:05:54;;;;;;;4.07;2.60;;;17.90;78.20;;;;;;4995317;28;20173;-84